Time;durP1;ratioP1;P1;durP2;ratioP2;P2;SDS_P1;SDS_P2;PMS_P1;PMS_P2;Temp;Humidity;BMP_temperature;BMP_pressure;BME280_temperature;BME280_humidity;BME280_pressure;Samples;Min_cycle;Max_cycle;Signal;HPM_P1;HPM_P2
2022/01/02 00:01:13;;;;;;;3.90;3.80;;;;;;;11.92;75.49;101403.84;5114074;28;20184;-72
2022/01/02 00:03:41;;;;;;;3.43;3.43;;;;;;;11.92;75.66;101403.84;5114034;28;20216;-72
2022/01/02 00:06:08;;;;;;;4.30;4.10;;;;;;;11.98;75.25;101406.28;5114594;28;20201;-72
2022/01/02 00:08:44;;;;;;;2.93;2.93;;;;;;;11.90;75.68;101387.31;5113908;28;20210;-72
2022/01/02 00:11:12;;;;;;;3.57;3.47;;;;;;;11.93;75.33;101397.69;5114494;28;20184;-72
2022/01/02 00:13:46;;;;;;;3.90;3.80;;;;;;;11.95;75.50;101404.63;5113855;28;20185;-72
2022/01/02 00:16:16;;;;;;;3.90;3.90;;;;;;;11.89;75.61;101390.88;5114074;28;20201;-73
2022/01/02 00:19:04;;;;;;;3.00;2.93;;;;;;;12.00;75.21;101386.06;5114467;28;20656;-73
2022/01/02 00:21:35;;;;;;;2.73;2.70;;;;;;;12.07;75.15;101391.06;5113803;28;20193;-73
2022/01/02 00:24:05;;;;;;;2.33;2.33;;;;;;;12.20;74.70;101398.47;5095635;28;20242;-72
2022/01/02 00:26:38;;;;;;;3.80;3.70;;;;;;;12.23;74.62;101391.34;5114138;28;20212;-72
2022/01/02 00:29:06;;;;;;;5.40;3.23;;;;;;;12.24;74.37;101371.19;5078762;28;20201;-72
2022/01/02 00:31:34;;;;;;;3.93;3.50;;;;;;;12.19;74.49;101373.97;5113708;28;20185;-72
2022/01/02 00:34:03;;;;;;;3.83;3.73;;;;;;;12.17;74.53;101367.94;5113700;28;20704;-72
2022/01/02 00:36:30;;;;;;;3.47;3.33;;;;;;;12.18;74.63;101366.16;5095281;28;20759;-73
2022/01/02 00:38:56;;;;;;;3.87;3.87;;;;;;;12.12;74.69;101362.84;5113660;28;20185;-73
2022/01/02 00:41:33;;;;;;;4.07;3.87;;;;;;;12.12;74.69;101365.47;5113889;28;20185;-73
2022/01/02 00:44:17;;;;;;;3.60;3.50;;;;;;;12.06;75.08;101370.09;5114156;28;20192;-73
2022/01/02 00:47:05;;;;;;;2.20;2.20;;;;;;;12.14;74.68;101381.16;5095265;28;20213;-73
2022/01/02 00:49:37;;;;;;;2.63;2.63;;;;;;;12.18;74.53;101379.28;5113870;28;20173;-72
2022/01/02 00:52:09;;;;;;;2.67;2.53;;;;;;;12.21;74.24;101361.66;5113786;28;20642;-72
2022/01/02 00:54:39;;;;;;;2.90;2.87;;;;;;;12.24;73.64;101356.28;5114090;28;20184;-72
2022/01/02 00:57:12;;;;;;;2.50;2.40;;;;;;;12.27;73.84;101363.19;5095228;28;20193;-73
2022/01/02 01:00:08;;;;;;;2.40;2.30;;;;;;;12.25;74.14;101373.75;5117505;28;20178;-72
2022/01/02 01:02:55;;;;;;;2.70;2.70;;;;;;;12.22;73.97;101386.16;5074008;28;20196;-72
2022/01/02 01:05:30;;;;;;;2.27;2.27;;;;;;;12.22;74.32;101394.88;5099731;28;20231;-73
2022/01/02 01:08:00;;;;;;;2.97;2.97;;;;;;;12.29;73.61;101388.50;5099592;28;20205;-72
2022/01/02 01:10:29;;;;;;;9.23;2.53;;;;;;;12.32;73.61;101393.63;5117997;28;20174;-72
2022/01/02 01:12:59;;;;;;;2.40;2.40;;;;;;;12.31;73.57;101399.78;5117640;28;20169;-73
2022/01/02 01:15:28;;;;;;;2.63;2.53;;;;;;;12.41;73.19;101389.78;5098931;28;20212;-73
2022/01/02 01:17:59;;;;;;;2.23;2.23;;;;;;;12.43;73.09;101394.97;5098973;28;20189;-73
2022/01/02 01:20:29;;;;;;;2.97;2.87;;;;;;;12.42;73.34;101393.25;5117787;28;20554;-73
2022/01/02 01:22:56;;;;;;;3.10;3.00;;;;;;;12.58;72.61;101397.03;5098805;28;20189;-73
2022/01/02 01:25:24;;;;;;;2.63;2.63;;;;;;;12.55;72.96;101394.50;5099098;28;20224;-73
2022/01/02 01:27:52;;;;;;;2.67;2.67;;;;;;;12.45;73.30;101401.03;5098760;28;20205;-73
2022/01/02 01:30:21;;;;;;;2.70;2.47;;;;;;;12.52;73.12;101406.00;5098734;28;20220;-73
2022/01/02 01:32:47;;;;;;;2.60;2.60;;;;;;;12.73;72.11;101392.94;5117205;28;20204;-72
2022/01/02 01:35:14;;;;;;;3.63;3.43;;;;;;;12.66;72.52;101394.97;5117054;28;20212;-73
2022/01/02 01:37:43;;;;;;;3.37;3.07;;;;;;;12.77;71.72;101400.63;5098765;28;20239;-72
2022/01/02 01:40:15;;;;;;;3.53;2.73;;;;;;;12.81;72.02;101396.13;5098777;28;20739;-71
2022/01/02 01:42:54;;;;;;;4.40;3.03;;;;;;;12.82;72.09;101406.56;5098418;28;20185;-72
2022/01/02 01:47:58;;;;;;;2.23;2.10;;;;;;;12.89;71.67;101394.91;5098274;28;20206;-72
2022/01/02 01:50:32;;;;;;;2.60;2.60;;;;;;;12.94;71.78;101390.31;5098391;28;20192;-72
2022/01/02 01:52:59;;;;;;;2.57;2.57;;;;;;;12.88;71.84;101384.47;5116897;28;20512;-72
2022/01/02 01:55:31;;;;;;;2.83;2.73;;;;;;;12.76;72.23;101377.91;5098183;28;20694;-73
2022/01/02 01:57:59;;;;;;;2.73;2.73;;;;;;;12.72;72.91;101376.34;5098154;28;20189;-72
2022/01/02 02:00:28;;;;;;;2.60;2.50;;;;;;;12.74;73.47;101390.25;5098128;28;20200;-72
2022/01/02 02:03:00;;;;;;;3.10;3.10;;;;;;;12.72;73.56;101381.59;5098089;28;20213;-72
2022/01/02 02:05:27;;;;;;;2.70;2.70;;;;;;;12.76;73.54;101377.06;5098037;28;20205;-72
2022/01/02 02:07:53;;;;;;;2.43;2.43;;;;;;;12.63;74.01;101374.91;5116747;28;20197;-72
2022/01/02 02:10:35;;;;;;;3.17;3.17;;;;;;;12.63;73.99;101368.78;5116434;28;20170;-72
2022/01/02 02:13:05;;;;;;;7.80;3.00;;;;;;;12.48;74.74;101379.91;5097939;28;20187;-72
2022/01/02 02:15:37;;;;;;;4.20;3.10;;;;;;;12.60;74.36;101371.56;5098291;28;20216;-72
2022/01/02 02:18:04;;;;;;;3.13;2.50;;;;;;;12.60;74.31;101374.19;5097834;28;20204;-72
2022/01/02 02:20:36;;;;;;;6.93;3.17;;;;;;;12.65;74.05;101377.50;5097518;28;20216;-72
2022/01/02 02:23:14;;;;;;;2.80;2.60;;;;;;;12.64;73.90;101379.25;5098322;28;20323;-72
2022/01/02 02:25:42;;;;;;;3.00;2.80;;;;;;;12.64;74.47;101371.38;5098454;28;20213;-72
2022/01/02 02:28:14;;;;;;;2.87;2.87;;;;;;;12.61;74.75;101370.63;5098132;28;20216;-72
2022/01/02 02:30:46;;;;;;;4.93;2.87;;;;;;;12.56;75.52;101351.56;5097557;28;20195;-72
2022/01/02 02:33:15;;;;;;;3.40;3.20;;;;;;;12.49;75.81;101344.84;5097540;28;20213;-72
2022/01/02 02:35:44;;;;;;;3.20;2.83;;;;;;;12.39;76.47;101347.81;5097540;28;20678;-72
2022/01/02 02:38:11;;;;;;;4.17;3.37;;;;;;;12.39;76.60;101346.97;5097439;28;20190;-72
2022/01/02 02:40:40;;;;;;;3.93;3.63;;;;;;;12.38;77.05;101354.00;5097386;28;20685;-72
2022/01/02 02:43:36;;;;;;;3.13;2.83;;;;;;;12.29;77.27;101346.47;5115584;28;20190;-72
2022/01/02 02:49:01;;;;;;;2.97;2.97;;;;;;;12.18;78.39;101361.78;5097401;28;20675;-72
2022/01/02 02:51:51;;;;;;;3.07;2.97;;;;;;;12.12;78.81;101357.59;5097427;28;20185;-72
2022/01/02 02:54:29;;;;;;;2.70;2.60;;;;;;;12.18;78.72;101351.28;5097654;28;20546;-72
2022/01/02 02:56:56;;;;;;;3.70;3.40;;;;;;;12.07;79.85;101348.19;5096981;28;20244;-72
2022/01/02 02:59:31;;;;;;;3.33;3.23;;;;;;;12.11;79.57;101336.66;5097006;28;20272;-72
2022/01/02 03:01:59;;;;;;;3.27;3.07;;;;;;;12.03;79.71;101326.47;5097037;28;20275;-72
2022/01/02 03:04:30;;;;;;;3.70;2.83;;;;;;;12.07;79.14;101314.06;5097206;28;20195;-72
2022/01/02 03:06:57;;;;;;;3.10;3.00;;;;;;;11.94;79.63;101289.22;5115066;28;20193;-72
2022/01/02 03:09:42;;;;;;;3.03;2.93;;;;;;;12.00;78.79;101281.97;5096651;28;20201;-72
2022/01/02 03:12:11;;;;;;;2.53;2.53;;;;;;;11.87;79.47;101267.59;5097119;28;20188;-72
2022/01/02 03:14:40;;;;;;;4.10;3.07;;;;;;;11.80;79.80;101264.34;5096672;28;20231;-74
2022/01/02 03:17:08;;;;;;;4.07;2.97;;;;;;;11.93;79.72;101283.13;5096650;28;20207;-73
2022/01/02 03:19:34;;;;;;;3.97;3.33;;;;;;;11.87;80.13;101287.72;5096448;28;20186;-73
2022/01/02 03:22:02;;;;;;;2.60;2.50;;;;;;;11.94;80.31;101286.59;5095959;28;20618;-73
2022/01/02 03:24:28;;;;;;;2.83;2.83;;;;;;;11.90;80.59;101283.22;5096466;28;20553;-72
2022/01/02 03:26:55;;;;;;;3.30;3.20;;;;;;;11.83;81.21;101282.59;5096611;28;20209;-73
2022/01/02 03:29:23;;;;;;;2.20;2.10;;;;;;;11.86;81.70;101292.13;5096390;28;20295;-73
2022/01/02 03:31:50;;;;;;;2.73;2.60;;;;;;;11.81;81.98;101288.81;5096352;28;20710;-73
2022/01/02 03:34:17;;;;;;;3.60;3.40;;;;;;;11.80;82.10;101276.56;5096527;28;20562;-72
2022/01/02 03:36:44;;;;;;;3.83;3.37;;;;;;;11.76;82.16;101273.19;5096188;28;20247;-73
2022/01/02 03:39:10;;;;;;;4.10;3.50;;;;;;;11.69;82.59;101273.47;5096176;28;20185;-72
2022/01/02 03:41:38;;;;;;;3.37;3.10;;;;;;;11.74;82.74;101264.53;5096468;28;20654;-72
2022/01/02 03:44:04;;;;;;;13.43;5.00;;;;;;;11.73;82.88;101256.72;5114909;28;20212;-72
2022/01/02 03:46:31;;;;;;;3.47;3.37;;;;;;;11.66;83.57;101258.72;5096287;28;20205;-73
2022/01/02 03:48:57;;;;;;;3.90;3.37;;;;;;;11.60;84.11;101263.34;5095991;28;20639;-73
2022/01/02 03:51:24;;;;;;;3.53;3.33;;;;;;;11.61;84.40;101254.56;5096051;28;20192;-73
2022/01/02 03:53:50;;;;;;;4.13;3.30;;;;;;;11.60;84.79;101258.94;5114546;28;20628;-73
2022/01/02 03:56:17;;;;;;;6.93;3.30;;;;;;;11.57;85.15;101265.16;5114075;28;20201;-73
2022/01/02 03:58:43;;;;;;;3.63;3.33;;;;;;;11.53;85.48;101252.22;5095934;28;20267;-73
2022/01/02 04:01:10;;;;;;;3.67;3.37;;;;;;;11.45;85.80;101251.66;5095903;28;20605;-73
2022/01/02 04:03:38;;;;;;;7.97;3.30;;;;;;;11.50;85.97;101241.81;5095889;28;20216;-73
2022/01/02 04:06:04;;;;;;;4.60;4.20;;;;;;;11.54;85.61;101235.56;5096259;28;20205;-73
2022/01/02 04:08:30;;;;;;;4.43;4.10;;;;;;;11.56;85.70;101236.34;5095893;28;20227;-73
2022/01/02 04:10:57;;;;;;;7.97;4.30;;;;;;;11.44;86.06;101226.34;5114040;28;20203;-73
2022/01/02 04:13:24;;;;;;;4.47;4.07;;;;;;;11.42;86.41;101215.03;5095700;28;20242;-73
2022/01/02 04:15:51;;;;;;;4.10;3.90;;;;;;;11.45;86.36;101209.69;5095847;28;20247;-73
2022/01/02 04:18:17;;;;;;;3.23;3.23;;;;;;;11.42;86.48;101204.53;5095659;28;20189;-73
2022/01/02 04:20:44;;;;;;;4.63;3.40;;;;;;;11.48;86.52;101204.31;5078699;28;20201;-73
2022/01/02 04:23:10;;;;;;;3.53;3.33;;;;;;;11.48;86.31;101212.19;5095615;28;20193;-73
2022/01/02 04:25:37;;;;;;;7.23;5.20;;;;;;;11.50;86.40;101223.47;5096208;28;20208;-73
2022/01/02 04:28:05;;;;;;;5.43;5.03;;;;;;;11.66;85.97;101214.13;5096505;28;20186;-73
2022/01/02 04:30:32;;;;;;;8.87;4.57;;;;;;;11.62;86.34;101212.53;5095460;28;20242;-73
2022/01/02 04:32:58;;;;;;;5.93;4.57;;;;;;;11.64;86.73;101215.94;5095788;28;20274;-72
2022/01/02 04:35:25;;;;;;;5.40;4.90;;;;;;;11.65;87.36;101204.56;5095370;28;20209;-73
2022/01/02 04:37:52;;;;;;;4.07;3.93;;;;;;;11.75;86.91;101211.16;5095485;28;20276;-72
2022/01/02 04:40:18;;;;;;;4.03;3.77;;;;;;;11.81;86.62;101199.59;5095421;28;20181;-72
2022/01/02 04:42:45;;;;;;;6.43;3.80;;;;;;;11.73;87.39;101205.13;5095465;28;20193;-72
2022/01/02 04:45:12;;;;;;;3.70;3.07;;;;;;;11.73;87.56;101194.63;5095572;28;20219;-74
2022/01/02 04:47:38;;;;;;;9.80;4.10;;;;;;;11.76;87.79;101197.13;5095311;28;20216;-73
2022/01/02 04:50:06;;;;;;;3.40;3.13;;;;;;;11.78;87.87;101195.28;5095252;28;20300;-72
2022/01/02 04:52:33;;;;;;;8.13;4.20;;;;;;;11.88;87.72;101174.84;5095355;28;20204;-72
2022/01/02 04:54:59;;;;;;;5.60;3.20;;;;;;;11.85;88.07;101165.28;5095460;28;20565;-74
2022/01/02 04:57:26;;;;;;;4.30;3.40;;;;;;;11.84;87.86;101163.59;5113720;28;20193;-72
2022/01/02 04:59:52;;;;;;;6.33;3.77;;;;;;;11.79;88.32;101168.16;5095352;28;20189;-72
2022/01/02 05:02:19;;;;;;;4.30;3.57;;;;;;;11.85;88.19;101178.41;5114017;28;20234;-72
2022/01/02 05:04:46;;;;;;;4.87;4.37;;;;;;;11.88;87.96;101173.97;5095451;28;20193;-74
2022/01/02 05:07:14;;;;;;;4.67;3.50;;;;;;;11.93;87.68;101177.25;5095185;28;20190;-73
2022/01/02 05:09:42;;;;;;;3.93;3.70;;;;;;;11.84;88.08;101181.97;5095011;28;20216;-73
2022/01/02 05:12:10;;;;;;;6.00;3.97;;;;;;;11.93;87.63;101172.00;5095109;28;20190;-72
2022/01/02 05:14:37;;;;;;;8.50;3.80;;;;;;;11.92;87.42;101167.69;5095151;28;20230;-73
2022/01/02 05:17:04;;;;;;;13.13;3.70;;;;;;;11.95;87.00;101162.34;5113285;28;20592;-72
2022/01/02 05:19:31;;;;;;;3.43;3.13;;;;;;;11.99;86.66;101151.63;5113176;28;20186;-72
2022/01/02 05:21:59;;;;;;;4.23;3.50;;;;;;;12.03;86.34;101152.38;5095333;28;20639;-72
2022/01/02 05:24:27;;;;;;;7.47;3.50;;;;;;;12.08;86.01;101147.81;5095042;28;20200;-72
2022/01/02 05:26:55;;;;;;;13.47;3.87;;;;;;;12.18;85.14;101135.16;5095466;28;20205;-72
2022/01/02 05:29:23;;;;;;;6.03;3.73;;;;;;;12.14;85.40;101139.66;5094864;28;20205;-72
2022/01/02 05:31:52;;;;;;;3.67;3.30;;;;;;;12.17;85.56;101136.06;5094914;28;20201;-72
2022/01/02 05:34:18;;;;;;;4.47;3.40;;;;;;;12.18;85.26;101136.00;5094963;28;20290;-72
2022/01/02 05:36:48;;;;;;;3.43;3.13;;;;;;;12.27;85.39;101138.22;5095111;28;20228;-73
2022/01/02 05:39:19;;;;;;;9.73;4.03;;;;;;;12.22;85.65;101137.59;5094910;28;20226;-73
2022/01/02 05:41:48;;;;;;;6.03;3.47;;;;;;;12.33;85.39;101130.09;5094843;28;20195;-73
2022/01/02 05:44:17;;;;;;;7.63;4.13;;;;;;;12.29;85.57;101130.31;5094866;28;20189;-73
2022/01/02 05:46:44;;;;;;;4.33;3.83;;;;;;;12.13;86.05;101117.81;5098130;28;20253;-73
2022/01/02 05:49:11;;;;;;;6.30;4.77;;;;;;;12.00;86.66;101108.75;5098312;28;20266;-73
2022/01/02 05:51:39;;;;;;;5.60;4.17;;;;;;;12.07;86.83;101130.31;5098748;28;20197;-73
2022/01/02 05:54:05;;;;;;;7.67;4.97;;;;;;;11.96;87.27;101120.28;5098267;28;20189;-73
2022/01/02 05:56:33;;;;;;;10.53;4.87;;;;;;;11.92;87.40;101118.69;5116496;28;20207;-73
2022/01/02 05:59:00;;;;;;;8.10;5.00;;;;;;;11.99;87.20;101114.03;5098238;28;20185;-73
2022/01/02 06:01:27;;;;;;;5.50;5.10;;;;;;;11.99;87.06;101100.91;5098189;28;20192;-73
2022/01/02 06:03:53;;;;;;;4.73;4.30;;;;;;;12.00;87.00;101102.63;5098089;28;20239;-73
2022/01/02 06:06:21;;;;;;;5.47;3.60;;;;;;;11.96;87.08;101101.06;5097995;28;20209;-74
2022/01/02 06:08:47;;;;;;;4.23;3.47;;;;;;;11.75;87.92;101085.22;5098201;28;20205;-74
2022/01/02 06:11:14;;;;;;;3.87;3.57;;;;;;;11.87;87.77;101088.31;5081204;28;20197;-74
2022/01/02 06:13:40;;;;;;;5.30;4.73;;;;;;;11.80;88.02;101085.94;5098917;28;20181;-73
2022/01/02 06:16:08;;;;;;;5.57;3.93;;;;;;;11.76;88.04;101084.31;5098047;28;20308;-74
2022/01/02 06:18:34;;;;;;;4.13;4.03;;;;;;;11.71;88.35;101083.63;5097801;28;20560;-74
2022/01/02 06:21:01;;;;;;;4.57;3.83;;;;;;;11.73;88.26;101080.97;5097886;28;20200;-73
2022/01/02 06:23:27;;;;;;;3.37;3.27;;;;;;;11.73;88.60;101073.94;5097792;28;20601;-73
2022/01/02 06:25:54;;;;;;;8.03;4.17;;;;;;;11.62;88.74;101073.50;5098123;28;20615;-74
2022/01/02 06:28:22;;;;;;;4.27;4.07;;;;;;;11.57;88.97;101073.72;5097561;28;20276;-73
2022/01/02 06:30:49;;;;;;;4.43;4.23;;;;;;;11.49;89.25;101057.41;5097999;28;20220;-73
2022/01/02 06:33:16;;;;;;;3.63;3.53;;;;;;;11.45;89.26;101053.22;5097793;28;20272;-73
2022/01/02 06:35:42;;;;;;;3.77;3.50;;;;;;;11.41;89.73;101045.53;5097469;28;20603;-74
2022/01/02 06:38:16;;;;;;;5.77;3.67;;;;;;;11.41;89.67;101045.53;5080889;28;20254;-72
2022/01/02 06:40:45;;;;;;;4.00;3.80;;;;;;;11.43;89.55;101026.22;5097280;28;20234;-72
2022/01/02 06:43:16;;;;;;;6.53;4.03;;;;;;;11.38;89.60;101025.53;5097630;28;20213;-72
2022/01/02 06:45:44;;;;;;;4.77;4.40;;;;;;;11.41;89.94;101017.53;5097827;28;20572;-73
2022/01/02 06:48:11;;;;;;;4.50;4.30;;;;;;;11.34;89.93;101021.31;5080465;28;20193;-73
2022/01/02 06:50:39;;;;;;;11.60;5.10;;;;;;;11.31;90.19;101026.69;5115647;28;20235;-73
2022/01/02 06:53:06;;;;;;;3.97;3.67;;;;;;;11.27;90.47;101025.94;5097729;28;20228;-73
2022/01/02 06:55:33;;;;;;;3.70;3.70;;;;;;;11.22;90.89;101022.66;5097454;28;20303;-74
2022/01/02 06:58:00;;;;;;;3.80;3.70;;;;;;;11.34;90.55;101012.59;5115320;28;20177;-73
2022/01/02 07:00:27;;;;;;;5.93;4.60;;;;;;;11.29;90.61;101011.03;5080255;28;20189;-73
2022/01/02 07:02:54;;;;;;;5.57;3.83;;;;;;;11.34;90.38;101010.81;5097265;28;20646;-73
2022/01/02 07:05:20;;;;;;;4.57;4.37;;;;;;;11.29;90.42;100997.06;5097101;28;20221;-74
2022/01/02 07:07:48;;;;;;;4.73;4.33;;;;;;;11.34;90.21;100989.00;5097048;28;20189;-73
2022/01/02 07:10:16;;;;;;;6.00;4.37;;;;;;;11.25;90.47;100980.59;5097564;28;20200;-73
2022/01/02 07:12:42;;;;;;;8.13;4.37;;;;;;;11.23;90.37;100966.72;5115267;28;20200;-73
2022/01/02 07:15:10;;;;;;;3.97;3.70;;;;;;;11.22;90.53;100937.94;5096721;28;20216;-74
2022/01/02 07:17:37;;;;;;;4.80;3.77;;;;;;;11.07;91.01;100909.69;5114917;28;20189;-73
2022/01/02 07:20:05;;;;;;;9.03;4.20;;;;;;;11.08;91.22;100903.56;5114786;28;20185;-72
2022/01/02 07:22:32;;;;;;;3.77;3.53;;;;;;;11.09;91.06;100921.84;5097438;28;20199;-72
2022/01/02 07:24:58;;;;;;;5.47;4.07;;;;;;;11.10;90.82;100931.41;5114709;28;20186;-73
2022/01/02 07:27:25;;;;;;;4.17;4.07;;;;;;;11.32;89.65;100926.16;5115265;28;20185;-73
2022/01/02 07:29:51;;;;;;;4.40;4.03;;;;;;;11.25;89.59;100928.16;5114856;28;20687;-73
2022/01/02 07:32:18;;;;;;;6.27;3.70;;;;;;;11.38;88.58;100918.03;5096298;28;20677;-73
2022/01/02 07:34:44;;;;;;;7.70;3.87;;;;;;;11.29;88.88;100929.75;5114537;28;20169;-74
2022/01/02 07:37:11;;;;;;;4.87;3.83;;;;;;;11.45;87.83;100939.63;5114560;28;20683;-73
2022/01/02 07:39:38;;;;;;;13.57;4.13;;;;;;;11.28;88.29;100929.81;5114778;28;20193;-73
2022/01/02 07:42:04;;;;;;;5.30;4.87;;;;;;;11.34;87.73;100920.84;5114511;28;20203;-73
2022/01/02 07:44:40;;;;;;;4.67;4.00;;;;;;;11.30;87.55;100913.13;5096827;28;20203;-72
2022/01/02 07:47:07;;;;;;;5.90;4.00;;;;;;;11.37;87.57;100899.75;5114737;28;20170;-73
2022/01/02 07:49:34;;;;;;;4.00;3.77;;;;;;;11.22;88.00;100911.72;5114277;28;20216;-73
2022/01/02 07:52:01;;;;;;;12.47;4.20;;;;;;;11.23;87.69;100906.41;5114847;28;20189;-72
2022/01/02 07:54:27;;;;;;;7.97;4.07;;;;;;;11.30;87.02;100899.16;5114869;28;20197;-72
2022/01/02 07:56:54;;;;;;;4.73;4.37;;;;;;;11.26;87.13;100887.09;5114192;28;20694;-72
2022/01/02 07:59:20;;;;;;;4.17;3.87;;;;;;;11.27;87.21;100876.53;5114209;28;20193;-72
2022/01/02 08:01:47;;;;;;;4.80;4.07;;;;;;;11.25;87.08;100872.28;5114155;28;20181;-72
2022/01/02 08:04:14;;;;;;;3.73;3.63;;;;;;;11.32;86.65;100857.16;5114105;28;20213;-72
2022/01/02 08:06:41;;;;;;;4.17;3.87;;;;;;;11.27;86.85;100849.47;5114549;28;20216;-72
2022/01/02 08:09:07;;;;;;;5.77;3.53;;;;;;;11.22;86.98;100833.94;5113732;28;20185;-72
2022/01/02 08:11:34;;;;;;;4.93;3.33;;;;;;;11.27;86.70;100812.78;5096262;28;20185;-72
2022/01/02 08:14:15;;;;;;;3.30;3.10;;;;;;;11.27;86.59;100790.03;5114259;28;20577;-72
2022/01/02 08:16:42;;;;;;;5.27;3.63;;;;;;;11.33;86.13;100788.91;5096010;28;20564;-73
2022/01/02 08:19:09;;;;;;;5.77;4.33;;;;;;;11.34;85.93;100792.38;5113864;28;20545;-73
2022/01/02 08:21:35;;;;;;;7.07;4.07;;;;;;;11.43;85.62;100784.13;5113752;28;20189;-73
2022/01/02 08:24:02;;;;;;;4.67;3.57;;;;;;;11.40;84.97;100769.38;5113906;28;20193;-73
2022/01/02 08:26:29;;;;;;;4.33;4.03;;;;;;;11.48;85.24;100766.41;5113782;28;20221;-73
2022/01/02 08:28:55;;;;;;;3.63;3.43;;;;;;;11.35;85.30;100755.63;5113767;28;20192;-72
2022/01/02 08:31:22;;;;;;;3.60;3.40;;;;;;;11.32;85.26;100768.88;5113982;28;20208;-72
2022/01/02 08:33:48;;;;;;;5.17;4.10;;;;;;;11.47;84.48;100781.31;5114023;28;20220;-72
2022/01/02 08:36:15;;;;;;;3.47;3.27;;;;;;;11.43;84.19;100737.81;5095385;28;20212;-73
2022/01/02 08:38:41;;;;;;;4.10;3.90;;;;;;;11.51;83.71;100755.81;5113984;28;20177;-72
2022/01/02 08:41:08;;;;;;;4.07;3.80;;;;;;;11.50;83.99;100757.59;5113900;28;20669;-72
2022/01/02 08:43:35;;;;;;;3.83;3.30;;;;;;;11.48;82.50;100755.94;5113915;28;20678;-72
2022/01/02 08:46:01;;;;;;;7.70;3.47;;;;;;;11.70;81.79;100761.91;5113559;28;20208;-72
2022/01/02 08:48:28;;;;;;;3.30;3.30;;;;;;;11.69;81.12;100744.47;5095376;28;20196;-72
2022/01/02 08:50:55;;;;;;;4.53;3.30;;;;;;;11.68;80.86;100736.69;5113528;28;20201;-73
2022/01/02 08:53:21;;;;;;;2.80;2.70;;;;;;;11.71;79.94;100732.13;5113552;28;20193;-72
2022/01/02 08:55:48;;;;;;;3.73;3.33;;;;;;;11.72;79.04;100723.38;5113451;28;20220;-72
2022/01/02 08:58:15;;;;;;;3.90;3.03;;;;;;;11.86;78.05;100730.66;5095223;28;20193;-72
2022/01/02 09:00:41;;;;;;;7.90;3.00;;;;;;;11.87;78.09;100736.75;5113996;28;20182;-72
2022/01/02 09:03:08;;;;;;;3.87;3.73;;;;;;;11.80;78.78;100742.25;5113734;28;20586;-72
2022/01/02 09:05:35;;;;;;;3.27;3.23;;;;;;;11.83;78.83;100739.50;5095111;28;20711;-73
2022/01/02 09:08:02;;;;;;;3.40;3.20;;;;;;;11.82;77.10;100752.69;5113565;28;20611;-72
2022/01/02 09:10:28;;;;;;;3.13;2.93;;;;;;;11.99;75.98;100760.63;5113538;28;20577;-73
2022/01/02 09:12:55;;;;;;;3.17;2.40;;;;;;;12.61;73.61;100761.19;5113686;28;20192;-73
2022/01/02 09:15:21;;;;;;;3.50;3.40;;;;;;;12.71;71.98;100780.81;5113617;28;20224;-73
2022/01/02 09:17:48;;;;;;;2.30;2.30;;;;;;;12.80;72.19;100784.78;5113349;28;20742;-73
2022/01/02 09:20:17;;;;;;;2.53;2.53;;;;;;;12.97;69.55;100789.19;5114629;28;20588;-73
2022/01/02 09:22:43;;;;;;;2.30;2.30;;;;;;;13.00;68.92;100789.00;5098936;28;20193;-73
2022/01/02 09:25:10;;;;;;;2.27;2.17;;;;;;;13.02;67.79;100788.03;5099481;28;20209;-73
2022/01/02 09:27:37;;;;;;;4.37;2.60;;;;;;;13.02;68.56;100790.66;5117075;28;20655;-73
2022/01/02 09:30:04;;;;;;;2.27;2.07;;;;;;;13.03;67.97;100778.38;5117502;28;20200;-73
2022/01/02 09:32:34;;;;;;;2.87;2.87;;;;;;;13.03;67.96;100789.72;5117001;28;20192;-73
2022/01/02 09:35:02;;;;;;;2.67;2.67;;;;;;;13.02;67.70;100776.66;5117126;28;20192;-73
2022/01/02 09:37:29;;;;;;;3.13;2.07;;;;;;;13.02;68.33;100788.03;5116972;28;20211;-73
2022/01/02 09:39:55;;;;;;;3.33;2.60;;;;;;;12.98;68.52;100778.59;5116904;28;20547;-73
2022/01/02 09:42:22;;;;;;;3.17;2.90;;;;;;;12.98;68.62;100777.75;5116894;28;20177;-73
2022/01/02 09:44:48;;;;;;;3.27;2.70;;;;;;;13.03;68.22;100783.63;5117243;28;20189;-74
2022/01/02 09:47:20;;;;;;;2.97;2.67;;;;;;;12.93;68.54;100781.47;5117312;28;20242;-73
2022/01/02 09:49:47;;;;;;;3.30;3.17;;;;;;;12.86;68.76;100777.44;5116640;28;20193;-72
2022/01/02 09:52:17;;;;;;;3.23;2.70;;;;;;;12.90;69.14;100773.72;5116991;28;20189;-73
2022/01/02 09:54:44;;;;;;;2.90;2.90;;;;;;;12.91;68.54;100779.81;5116501;28;20189;-72
2022/01/02 09:57:11;;;;;;;2.20;2.20;;;;;;;12.88;69.12;100791.34;5116575;28;20353;-72
2022/01/02 09:59:38;;;;;;;2.37;2.27;;;;;;;13.05;67.79;100776.50;5116533;28;20193;-72
2022/01/02 10:02:05;;;;;;;2.70;2.70;;;;;;;13.09;68.39;100799.94;5116453;28;20189;-72
2022/01/02 10:04:37;;;;;;;2.27;2.27;;;;;;;13.18;67.00;100778.44;5116361;28;20197;-72
2022/01/02 10:07:06;;;;;;;2.80;2.63;;;;;;;13.17;67.43;100779.38;5116322;28;20208;-72
2022/01/02 10:09:37;;;;;;;2.83;2.67;;;;;;;13.03;67.98;100792.34;5116220;28;20182;-72
2022/01/02 10:12:21;;;;;;;2.03;2.03;;;;;;;13.04;68.05;100780.06;5097994;28;20574;-72
2022/01/02 10:15:09;;;;;;;3.03;2.73;;;;;;;12.93;69.35;100776.22;5097849;28;20201;-73
2022/01/02 10:17:59;;;;;;;2.83;2.83;;;;;;;12.99;69.60;100780.28;5116706;28;20186;-72
2022/01/02 10:20:32;;;;;;;4.00;3.73;;;;;;;12.99;70.09;100785.53;5116734;28;20185;-72
2022/01/02 10:23:09;;;;;;;3.20;3.10;;;;;;;12.95;70.20;100782.22;5116106;28;20181;-72
2022/01/02 10:25:45;;;;;;;3.03;3.03;;;;;;;12.89;70.78;100786.94;5116322;28;20213;-73
2022/01/02 10:28:25;;;;;;;2.90;2.80;;;;;;;12.88;70.56;100780.84;5097642;28;20199;-72
2022/01/02 10:31:15;;;;;;;3.17;3.07;;;;;;;12.87;70.62;100789.66;5115863;28;20201;-72
2022/01/02 10:33:53;;;;;;;3.03;2.93;;;;;;;12.92;71.58;100782.38;5097591;28;20555;-72
2022/01/02 10:36:28;;;;;;;6.17;3.27;;;;;;;12.76;74.05;100791.94;5115953;28;20258;-72
2022/01/02 10:39:01;;;;;;;2.67;2.63;;;;;;;12.65;73.29;100770.63;5116316;28;20177;-72
2022/01/02 10:41:33;;;;;;;3.30;3.00;;;;;;;12.59;73.50;100781.44;5116009;28;20646;-72
2022/01/02 10:44:19;;;;;;;2.70;2.70;;;;;;;12.61;74.63;100776.94;5115980;28;20165;-72
2022/01/02 10:47:09;;;;;;;3.37;3.17;;;;;;;12.58;73.21;100782.34;5097714;28;20209;-72
2022/01/02 10:49:49;;;;;;;3.23;3.03;;;;;;;12.69;73.36;100785.28;5116136;28;20180;-73
2022/01/02 10:52:21;;;;;;;3.90;3.13;;;;;;;12.68;73.13;100779.19;5116030;28;20193;-73
2022/01/02 10:54:48;;;;;;;3.27;3.17;;;;;;;12.70;73.63;100776.47;5115943;28;20177;-73
2022/01/02 10:57:16;;;;;;;3.80;3.70;;;;;;;12.77;73.71;100772.63;5097364;28;20181;-73
2022/01/02 10:59:43;;;;;;;4.00;3.30;;;;;;;12.84;74.37;100779.28;5115290;28;20242;-73
2022/01/02 11:02:13;;;;;;;3.80;3.37;;;;;;;12.98;74.09;100769.84;5115251;28;20197;-73
2022/01/02 11:04:47;;;;;;;3.93;3.67;;;;;;;12.99;73.31;100766.28;5115411;28;20673;-72
2022/01/02 11:07:19;;;;;;;4.13;4.00;;;;;;;13.10;73.02;100774.50;5115409;28;20177;-72
2022/01/02 11:09:48;;;;;;;5.75;3.80;;;;;;;13.11;73.77;100765.69;5115648;28;20574;-72
2022/01/02 11:12:19;;;;;;;3.60;3.40;;;;;;;13.11;72.67;100763.91;5115609;28;20166;-72
2022/01/02 11:14:48;;;;;;;3.97;3.73;;;;;;;13.15;72.75;100757.56;5115662;28;20174;-73
2022/01/02 11:17:16;;;;;;;3.53;3.27;;;;;;;13.12;73.06;100786.63;5115116;28;20182;-72
2022/01/02 11:19:43;;;;;;;4.00;3.90;;;;;;;13.15;72.74;100772.50;5115401;28;20166;-72
2022/01/02 11:22:19;;;;;;;7.17;3.80;;;;;;;13.12;73.84;100777.91;5114751;28;20170;-72
2022/01/02 11:25:01;;;;;;;5.07;4.67;;;;;;;13.17;72.11;100770.63;5115039;28;20214;-73
2022/01/02 11:27:41;;;;;;;4.50;4.27;;;;;;;13.09;73.09;100764.91;5114852;28;20180;-73
2022/01/02 11:30:43;;;;;;;10.40;4.50;;;;;;;13.16;73.22;100776.81;5114871;28;20599;-74
2022/01/02 11:33:12;;;;;;;4.10;4.00;;;;;;;13.00;72.86;100775.88;5012437;28;20188;-72
2022/01/02 11:35:45;;;;;;;6.13;4.50;;;;;;;13.13;72.86;100769.91;5096364;28;20650;-72
2022/01/02 11:38:11;;;;;;;4.87;4.67;;;;;;;13.07;72.66;100775.50;5114929;28;20173;-74
2022/01/02 11:40:56;;;;;;;5.10;4.57;;;;;;;13.10;72.84;100777.13;5114530;28;20181;-74